createdAt,value
2022-09-04T00:00:09.086Z,6.63
2022-09-04T00:05:20.336Z,6.87
2022-09-04T00:10:32.001Z,7.50
2022-09-04T00:15:42.686Z,7.37
2022-09-04T00:20:53.772Z,6.57
2022-09-04T00:26:04.808Z,6.40
2022-09-04T00:31:15.927Z,5.70
2022-09-04T00:36:25.279Z,5.57
2022-09-04T00:41:36.613Z,5.93
2022-09-04T00:46:48.869Z,5.63
2022-09-04T00:52:00.237Z,5.77
2022-09-04T01:02:27.002Z,5.90
2022-09-04T01:07:38.435Z,7.20
2022-09-04T01:18:03.043Z,5.83
2022-09-04T01:23:14.058Z,5.67
2022-09-04T01:28:25.543Z,5.77
2022-09-04T01:33:36.672Z,6.30
2022-09-04T01:38:47.700Z,6.17
2022-09-04T01:43:55.587Z,6.80
2022-09-04T01:49:06.586Z,6.93
2022-09-04T01:54:17.609Z,7.77
2022-09-04T01:59:28.011Z,9.30
2022-09-04T02:04:39.048Z,9.83
2022-09-04T02:09:50.005Z,9.57
2022-09-04T02:15:04.496Z,8.37
2022-09-04T02:20:15.489Z,8.20
2022-09-04T02:25:27.774Z,8.87
2022-09-04T02:30:39.097Z,8.50
2022-09-04T02:35:50.053Z,8.83
2022-09-04T02:41:01.409Z,9.07
2022-09-04T02:46:12.414Z,8.70
2022-09-04T02:51:23.410Z,8.57
2022-09-04T03:01:50.008Z,8.60
2022-09-04T03:07:01.547Z,9.20
2022-09-04T03:12:12.514Z,9.20
2022-09-04T03:17:23.590Z,8.63
2022-09-04T03:22:34.734Z,9.50
2022-09-04T03:27:42.591Z,8.70
2022-09-04T03:32:53.939Z,9.90
2022-09-04T03:38:04.907Z,9.33
2022-09-04T03:43:15.869Z,8.70
2022-09-04T03:48:27.012Z,8.57
2022-09-04T03:53:38.293Z,8.07
2022-09-04T03:58:49.255Z,9.10
2022-09-04T04:04:00.220Z,8.07
2022-09-04T04:14:26.083Z,8.83
2022-09-04T04:19:37.119Z,8.00
2022-09-04T04:24:48.382Z,8.00
2022-09-04T04:29:59.447Z,7.50
2022-09-04T04:35:11.786Z,7.60
2022-09-04T04:40:24.164Z,7.40
2022-09-04T04:45:36.722Z,7.43
2022-09-04T04:50:47.965Z,8.97
2022-09-04T04:55:58.954Z,8.20
2022-09-04T05:01:09.945Z,6.97
2022-09-04T05:06:21.411Z,7.70
2022-09-04T05:11:33.729Z,7.80
2022-09-04T05:16:46.349Z,7.23
2022-09-04T05:21:57.418Z,7.03
2022-09-04T05:32:21.283Z,6.13
2022-09-04T05:37:32.276Z,6.77
2022-09-04T05:42:45.760Z,6.27
2022-09-04T05:47:56.821Z,5.90
2022-09-04T05:53:07.885Z,5.17
2022-09-04T05:58:21.102Z,5.60
2022-09-04T06:03:33.088Z,6.00
2022-09-04T06:08:43.711Z,5.27
2022-09-04T06:13:55.260Z,5.10
2022-09-04T06:19:07.743Z,4.97
2022-09-04T06:29:34.411Z,5.10
2022-09-04T06:34:46.464Z,4.57
2022-09-04T06:39:59.061Z,5.23
2022-09-04T06:45:10.348Z,4.93
2022-09-04T06:50:21.525Z,5.30
2022-09-04T06:55:33.720Z,5.00
2022-09-04T07:00:44.299Z,5.13
2022-09-04T07:05:55.253Z,4.63
2022-09-04T07:11:06.240Z,4.80
2022-09-04T07:16:17.403Z,5.07
2022-09-04T07:21:30.461Z,4.53
2022-09-04T07:26:40.905Z,4.80
2022-09-04T07:31:51.996Z,4.70
2022-09-04T07:37:04.503Z,4.43
2022-09-04T07:42:15.987Z,4.40
2022-09-04T07:47:28.168Z,4.53
2022-09-04T07:52:40.762Z,4.60
2022-09-04T08:03:12.721Z,4.10
2022-09-04T08:08:24.452Z,4.33
2022-09-04T08:13:35.573Z,4.20
2022-09-04T08:18:46.568Z,4.27
2022-09-04T08:23:57.556Z,3.80
2022-09-04T08:29:11.226Z,4.00
2022-09-04T08:34:22.678Z,3.70
2022-09-04T08:39:33.772Z,4.10
2022-09-04T08:44:44.928Z,4.10
2022-09-04T08:49:55.965Z,4.50
2022-09-04T08:55:07.523Z,4.50
2022-09-04T09:00:20.750Z,4.03
2022-09-04T09:05:31.769Z,3.77
2022-09-04T09:10:43.340Z,3.93
2022-09-04T09:15:54.367Z,3.90
2022-09-04T09:21:05.290Z,3.57
2022-09-04T09:26:16.344Z,3.37
2022-09-04T09:31:27.789Z,4.10
2022-09-04T09:36:40.387Z,4.00
2022-09-04T09:41:51.893Z,4.33
2022-09-04T09:47:02.417Z,4.40
2022-09-04T09:52:13.740Z,4.30
2022-09-04T09:57:25.551Z,4.07
2022-09-04T10:02:38.449Z,3.57
2022-09-04T10:07:50.979Z,4.50
2022-09-04T10:13:02.174Z,3.63
2022-09-04T10:18:13.920Z,3.60
2022-09-04T10:23:25.040Z,3.93
2022-09-04T10:28:36.073Z,4.03
2022-09-04T10:33:47.064Z,3.90
2022-09-04T10:38:59.682Z,3.87
2022-09-04T10:44:10.679Z,3.40
2022-09-04T10:49:21.696Z,3.37
2022-09-04T10:54:32.784Z,3.73
2022-09-04T10:59:44.282Z,3.37
2022-09-04T11:04:55.275Z,3.60
2022-09-04T11:10:08.983Z,3.50
2022-09-04T11:25:52.499Z,2.90
2022-09-04T11:31:03.596Z,3.20
2022-09-04T11:36:15.016Z,3.00
2022-09-04T11:41:27.679Z,2.97
2022-09-04T11:46:38.693Z,2.50
2022-09-04T11:57:03.757Z,2.20
2022-09-04T12:02:18.061Z,2.10
2022-09-04T12:07:39.368Z,2.10
2022-09-04T12:12:46.396Z,1.55
2022-09-04T12:17:57.797Z,1.80
2022-09-04T12:23:09.417Z,1.70
2022-09-04T12:28:20.519Z,1.60
2022-09-04T12:33:34.857Z,1.60
2022-09-04T12:38:47.557Z,1.60
2022-09-04T12:43:58.758Z,1.80
2022-09-04T12:49:10.186Z,1.50
2022-09-04T12:54:24.005Z,1.30
2022-09-04T12:59:35.741Z,1.30
2022-09-04T13:04:47.346Z,1.40
2022-09-04T13:09:58.421Z,1.37
2022-09-04T13:15:10.603Z,1.47
2022-09-04T13:25:44.028Z,3.70
2022-09-04T13:36:11.393Z,1.20
2022-09-04T13:41:22.382Z,1.37
2022-09-04T13:46:36.460Z,1.20
2022-09-04T13:51:48.204Z,1.50
2022-09-04T13:56:59.564Z,1.70
2022-09-04T14:02:09.899Z,1.37
2022-09-04T14:07:22.775Z,1.30
2022-09-04T14:12:35.653Z,1.50
2022-09-04T14:17:46.663Z,1.23
2022-09-04T14:22:58.071Z,1.70
2022-09-04T14:28:09.343Z,1.97
2022-09-04T14:33:22.061Z,1.70
2022-09-04T14:38:35.684Z,2.20
2022-09-04T14:43:46.981Z,1.77
2022-09-04T14:48:59.657Z,2.10
2022-09-04T14:54:07.778Z,1.47
2022-09-04T14:59:18.807Z,1.73
2022-09-04T15:04:33.701Z,1.50
2022-09-04T15:09:45.813Z,1.70
2022-09-04T15:14:54.682Z,5.70
2022-09-04T15:20:06.020Z,1.40
2022-09-04T15:25:17.833Z,1.67
2022-09-04T15:30:27.631Z,1.33
2022-09-04T15:35:36.086Z,1.30
2022-09-04T15:41:12.763Z,1.60
2022-09-04T15:46:01.428Z,1.80
2022-09-04T15:51:12.456Z,1.43
2022-09-04T16:01:45.732Z,1.40
2022-09-04T16:06:58.074Z,1.70
2022-09-04T16:17:25.618Z,1.80
2022-09-04T16:22:37.801Z,1.73
2022-09-04T16:27:49.616Z,1.60
2022-09-04T16:32:58.809Z,1.70
2022-09-04T16:38:10.207Z,1.70
2022-09-04T16:43:21.912Z,1.80
2022-09-04T16:48:34.699Z,1.70
2022-09-04T16:53:45.498Z,2.07
2022-09-04T16:58:55.354Z,1.80
2022-09-04T17:04:13.645Z,2.20
2022-09-04T17:09:21.390Z,1.90
2022-09-04T17:14:33.332Z,2.50
2022-09-04T17:19:41.275Z,2.03
2022-09-04T17:29:11.933Z,2.30
2022-09-04T17:30:04.902Z,2.30
2022-09-04T17:40:30.447Z,2.00
2022-09-04T17:41:36.591Z,2.60
2022-09-04T17:45:45.997Z,2.10
2022-09-04T17:50:56.219Z,2.07
2022-09-04T17:56:08.059Z,1.93
2022-09-04T18:01:19.582Z,2.20
2022-09-04T18:06:27.808Z,2.30
2022-09-04T18:11:40.224Z,2.57
2022-09-04T18:16:54.506Z,2.07
2022-09-04T18:22:26.068Z,2.17
2022-09-04T18:27:19.354Z,2.37
2022-09-04T18:37:11.621Z,2.23
2022-09-04T18:50:24.307Z,2.20
2022-09-04T18:50:29.502Z,1.90
2022-09-04T18:53:26.329Z,2.20
2022-09-04T18:58:39.290Z,2.30
2022-09-04T19:03:50.760Z,3.40
2022-09-04T19:09:00.726Z,3.30
2022-09-04T19:14:12.550Z,2.70
2022-09-04T19:19:26.779Z,2.07
2022-09-04T19:24:38.900Z,2.40
2022-09-04T19:29:51.140Z,2.30
2022-09-04T19:35:04.233Z,2.63
2022-09-04T19:45:57.206Z,3.17
2022-09-04T19:46:16.321Z,3.57
2022-09-04T19:53:24.134Z,3.03
2022-09-04T19:55:56.673Z,3.30
2022-09-04T20:01:10.422Z,3.53
2022-09-04T20:06:22.565Z,3.10
2022-09-04T20:11:35.591Z,3.23
2022-09-04T20:16:48.812Z,3.70
2022-09-04T20:21:59.430Z,4.57
2022-09-04T20:27:12.360Z,4.20
2022-09-04T20:32:24.107Z,4.30
2022-09-04T20:37:36.903Z,4.27
2022-09-04T20:42:56.217Z,4.30
2022-09-04T20:52:43.111Z,4.30
2022-09-04T20:53:21.589Z,4.50
2022-09-04T21:03:07.907Z,4.50
2022-09-04T21:03:42.662Z,4.53
2022-09-04T21:08:55.140Z,4.53
2022-09-04T21:14:06.370Z,5.03
2022-09-04T21:19:28.655Z,5.47
2022-09-04T21:29:52.312Z,5.33
2022-09-04T21:35:03.467Z,5.63
2022-09-04T21:40:21.611Z,5.73
2022-09-04T21:45:28.498Z,6.33
2022-09-04T21:50:39.523Z,5.83
2022-09-04T22:06:42.496Z,6.80
2022-09-04T22:13:39.299Z,6.40
2022-09-04T22:16:54.782Z,6.17
2022-09-04T22:22:05.873Z,6.10
2022-09-04T22:32:34.639Z,6.00
2022-09-04T22:43:00.102Z,5.87
2022-09-04T22:48:11.098Z,5.63
2022-09-04T22:53:27.290Z,5.73
2022-09-04T22:58:36.001Z,5.90
2022-09-04T23:03:47.151Z,5.30
2022-09-04T23:13:42.563Z,5.20
2022-09-04T23:14:17.419Z,5.03
2022-09-04T23:26:31.357Z,5.47
2022-09-04T23:26:58.109Z,4.60
2022-09-04T23:35:15.062Z,5.13
2022-09-04T23:40:17.081Z,5.40
2022-09-04T23:50:44.243Z,5.87
2022-09-04T23:55:55.537Z,5.87
